Buoy 13569

sailwx.info

Track history (hours):
 
Tides and Currents Weather Stations Pressure Air Temp Water Temp Dewpoint Dewpoint Depression Visibility Wind Speed Wind Dir Waves Ship Positions

Drifting buoy 13569

Last reported at 2015-Apr-21 10:00 UTC. Time now 2015-Apr-21 11:36 UTC.
Position N 31°04' W 031°40'.

Barometer 1019.7 mb
Water temperature 20.2 ° C

Date/timePositionNaut miles runAvg speedWind from/ knotsBaromVisibWave heightAir tempDewpointWater temp
2015-Apr-21 10:00N 31°04' W 031°40'3 1.6 1019.7 20.2
2015-Apr-21 08:00N 31°07' W 031°42'2 0.8 1019.5 20.1
2015-Apr-21 05:00N 31°09' W 031°42'0 0.0 1019.2 20.2
2015-Apr-21 04:00N 31°09' W 031°42'10 1.7 1019.7 20.2
2015-Apr-20 22:00N 31°17' W 031°50'2 0.4 1023.0 20.3
2015-Apr-20 16:00N 31°20' W 031°50'3 1.5 1023.2 20.4
2015-Apr-20 14:00N 31°22' W 031°52'1 0.6 1023.7 20.2
2015-Apr-20 12:00N 31°23' W 031°53'2 1.1 1024.3 20.1
2015-Apr-20 10:00N 31°25' W 031°53'0 0.2 1024.1 20.0
2015-Apr-20 07:00N 31°26' W 031°54'7 0.8 1023.7 20.0
2015-Apr-19 22:00N 31°33' W 031°55'1 0.7 1025.8 20.1
2015-Apr-19 20:00N 31°34' W 031°56'8 0.5 1025.4 20.1
2015-Apr-19 04:00N 31°41' W 031°57'4 0.6 1025.1 20.1
2015-Apr-18 21:00N 31°46' W 031°57'0 0.0 1025.0 20.1
2015-Apr-18 20:00N 31°46' W 031°57'3 0.3 1024.1 20.2
2015-Apr-18 11:00N 31°48' W 031°56'2 0.5 1023.2 20.1
2015-Apr-18 07:00N 31°50' W 031°55'0 0.0 1020.5 20.1
2015-Apr-18 06:00N 31°50' W 031°55'1 0.7 1020.2 20.1
2015-Apr-18 04:00N 31°51' W 031°54'3 0.3 1019.5 20.1
2015-Apr-17 20:00N 31°53' W 031°56'3 0.4 1018.2 20.2
2015-Apr-17 12:00N 31°53' W 031°60'1 0.2 1019.5 20.2
2015-Apr-17 08:00N 31°53' W 032°00'5 0.6 1018.7 20.2
2015-Apr-16 23:00N 31°53' W 032°06'3 0.5 1021.0 20.4
2015-Apr-16 18:00N 31°53' W 032°09'3 0.2 1021.2 20.6
2015-Apr-16 05:00N 31°53' W 032°12'4 0.4 1022.0 20.5
2015-Apr-15 19:00N 31°53' W 032°17'1 0.3 1023.2 21.2
2015-Apr-15 16:00N 31°53' W 032°18'0 0.0 1023.5 20.9
2015-Apr-15 15:00N 31°53' W 032°18'2 0.6 1023.7 20.9
2015-Apr-15 12:00N 31°53' W 032°20'1 0.7 1024.3 20.2
2015-Apr-15 11:00N 31°53' W 032°21'2 0.4 1024.0 20.2
2015-Apr-15 07:00N 31°51' W 032°22'0 0.0 1022.7 20.1
2015-Apr-15 06:00N 31°51' W 032°22'12 0.6 1023.0 20.1
2015-Apr-14 09:00N 31°46' W 032°34'13 0.7 1026.0 19.9
2015-Apr-13 13:00N 31°39' W 032°48'2 1.1 1027.3 20.0
2015-Apr-13 11:00N 31°37' W 032°49'5 0.9 1027.4 19.9
2015-Apr-13 05:00N 31°34' W 032°55'4 3.7 1025.5 19.9
2015-Apr-13 04:00N 31°36' W 032°51'6 0.6 1025.8 19.9
2015-Apr-12 19:00N 31°33' W 032°57'2 1.1 1024.8 20.0
2015-Apr-12 17:00N 31°32' W 032°59'6 0.7 1024.5 20.0
2015-Apr-12 08:00N 31°28' W 033°04'0 0.5 1023.2 19.9
2015-Apr-12 07:00N 31°27' W 033°04'1 0.5 1022.7 19.9
2015-Apr-12 05:00N 31°27' W 033°05'0 0.0 1022.2 19.9
2015-Apr-12 04:00N 31°27' W 033°05'3 0.8 1022.4 20.0
2015-Apr-12 00:00N 31°25' W 033°09'1 0.9 1023.7 20.0
2015-Apr-11 23:00N 31°25' W 033°10'0 0.3 1023.7 20.0
2015-Apr-11 22:00N 31°25' W 033°10'6 1.1 1023.7 20.1
2015-Apr-11 17:00N 31°24' W 033°16'1 0.4 1023.0 20.3
2015-Apr-11 14:00N 31°23' W 033°17'1 0.4 1024.5 20.2
2015-Apr-11 11:00N 31°22' W 033°18'0 0.0 1025.3 19.9
2015-Apr-11 10:00N 31°22' W 033°18'   1025.1 19.9
Track history (hours):
 
Tides and Currents Weather Stations Pressure Air Temp Water Temp Dewpoint Dewpoint Depression Visibility Wind Speed Wind Dir Waves Ship Positions

Drifting buoy 13569

Last reported at 2015-Apr-21 10:00 UTC. Time now 2015-Apr-21 11:36 UTC.
Position N 31°04' W 031°40'.

Barometer 1019.7 mb
Water temperature 20.2 ° C

Date/timePositionNaut miles runAvg speedWind from/ knotsBaromVisibWave heightAir tempDewpointWater temp
2015-Apr-21 10:00N 31°04' W 031°40'3 1.6 1019.7 20.2
2015-Apr-21 08:00N 31°07' W 031°42'2 0.8 1019.5 20.1
2015-Apr-21 05:00N 31°09' W 031°42'0 0.0 1019.2 20.2
2015-Apr-21 04:00N 31°09' W 031°42'10 1.7 1019.7 20.2
2015-Apr-20 22:00N 31°17' W 031°50'2 0.4 1023.0 20.3
2015-Apr-20 16:00N 31°20' W 031°50'3 1.5 1023.2 20.4
2015-Apr-20 14:00N 31°22' W 031°52'1 0.6 1023.7 20.2
2015-Apr-20 12:00N 31°23' W 031°53'2 1.1 1024.3 20.1
2015-Apr-20 10:00N 31°25' W 031°53'0 0.2 1024.1 20.0
2015-Apr-20 07:00N 31°26' W 031°54'7 0.8 1023.7 20.0
2015-Apr-19 22:00N 31°33' W 031°55'1 0.7 1025.8 20.1
2015-Apr-19 20:00N 31°34' W 031°56'8 0.5 1025.4 20.1
2015-Apr-19 04:00N 31°41' W 031°57'4 0.6 1025.1 20.1
2015-Apr-18 21:00N 31°46' W 031°57'0 0.0 1025.0 20.1
2015-Apr-18 20:00N 31°46' W 031°57'3 0.3 1024.1 20.2
2015-Apr-18 11:00N 31°48' W 031°56'2 0.5 1023.2 20.1
2015-Apr-18 07:00N 31°50' W 031°55'0 0.0 1020.5 20.1
2015-Apr-18 06:00N 31°50' W 031°55'1 0.7 1020.2 20.1
2015-Apr-18 04:00N 31°51' W 031°54'3 0.3 1019.5 20.1
2015-Apr-17 20:00N 31°53' W 031°56'3 0.4 1018.2 20.2
2015-Apr-17 12:00N 31°53' W 031°60'1 0.2 1019.5 20.2
2015-Apr-17 08:00N 31°53' W 032°00'5 0.6 1018.7 20.2
2015-Apr-16 23:00N 31°53' W 032°06'3 0.5 1021.0 20.4
2015-Apr-16 18:00N 31°53' W 032°09'3 0.2 1021.2 20.6
2015-Apr-16 05:00N 31°53' W 032°12'4 0.4 1022.0 20.5
2015-Apr-15 19:00N 31°53' W 032°17'1 0.3 1023.2 21.2
2015-Apr-15 16:00N 31°53' W 032°18'0 0.0 1023.5 20.9
2015-Apr-15 15:00N 31°53' W 032°18'2 0.6 1023.7 20.9
2015-Apr-15 12:00N 31°53' W 032°20'1 0.7 1024.3 20.2
2015-Apr-15 11:00N 31°53' W 032°21'2 0.4 1024.0 20.2
2015-Apr-15 07:00N 31°51' W 032°22'0 0.0 1022.7 20.1
2015-Apr-15 06:00N 31°51' W 032°22'12 0.6 1023.0 20.1
2015-Apr-14 09:00N 31°46' W 032°34'13 0.7 1026.0 19.9
2015-Apr-13 13:00N 31°39' W 032°48'2 1.1 1027.3 20.0
2015-Apr-13 11:00N 31°37' W 032°49'5 0.9 1027.4 19.9
2015-Apr-13 05:00N 31°34' W 032°55'4 3.7 1025.5 19.9
2015-Apr-13 04:00N 31°36' W 032°51'6 0.6 1025.8 19.9
2015-Apr-12 19:00N 31°33' W 032°57'2 1.1 1024.8 20.0
2015-Apr-12 17:00N 31°32' W 032°59'6 0.7 1024.5 20.0
2015-Apr-12 08:00N 31°28' W 033°04'0 0.5 1023.2 19.9
2015-Apr-12 07:00N 31°27' W 033°04'1 0.5 1022.7 19.9
2015-Apr-12 05:00N 31°27' W 033°05'0 0.0 1022.2 19.9
2015-Apr-12 04:00N 31°27' W 033°05'3 0.8 1022.4 20.0
2015-Apr-12 00:00N 31°25' W 033°09'1 0.9 1023.7 20.0
2015-Apr-11 23:00N 31°25' W 033°10'0 0.3 1023.7 20.0
2015-Apr-11 22:00N 31°25' W 033°10'6 1.1 1023.7 20.1
2015-Apr-11 17:00N 31°24' W 033°16'1 0.4 1023.0 20.3
2015-Apr-11 14:00N 31°23' W 033°17'1 0.4 1024.5 20.2
2015-Apr-11 11:00N 31°22' W 033°18'0 0.0 1025.3 19.9
2015-Apr-11 10:00N 31°22' W 033°18'   1025.1 19.9

Dump ship's entire track history